MST,Max TemperatureF,Mean TemperatureF,Min TemperatureF,Max Dew PointF,MeanDew PointF,Min DewpointF,Max Humidity, Mean Humidity, Min Humidity, Max Sea Level PressureIn, Mean Sea Level PressureIn, Min Sea Level PressureIn, Max VisibilityMiles, Mean VisibilityMiles, Min VisibilityMiles, Max Wind SpeedMPH, Mean Wind SpeedMPH, Max Gust SpeedMPH,PrecipitationIn, CloudCover, Events, WindDirDegrees
2013-9-1,90,78,66,60,56,53,76,47,29,30.10,29.93,29.85,10,10,10,21,8,26,0.00,0,Thunderstorm,265
2013-9-2,90,77,64,61,57,52,88,58,29,30.19,29.99,29.83,10,8,1,25,10,37,0.36,4,Rain-Thunderstorm,247
2013-9-3,87,78,69,64,57,50,78,54,29,30.20,29.99,29.88,10,10,10,18,6,17,0.11,4,Rain-Thunderstorm,180
2013-9-4,89,78,66,59,53,46,73,45,22,30.02,29.97,29.93,10,10,10,16,6,25,0.00,1,,128
2013-9-5,91,78,66,55,50,45,64,39,22,30.01,29.96,29.93,10,10,10,23,6,30,0.00,2,,135
2013-9-6,89,79,69,63,54,50,63,45,26,30.17,30.00,29.89,10,10,7,20,5,29,0.01,5,Rain-Thunderstorm,129
2013-9-7,72,69,66,63,61,58,88,79,68,30.12,29.99,29.92,10,9,2,8,4,,0.35,6,Rain,240
2013-9-8,78,70,63,64,63,60,94,84,58,30.03,29.93,29.82,10,8,1,12,4,,0.60,7,Rain-Thunderstorm,31
2013-9-9,75,70,64,64,63,61,94,88,65,30.02,29.91,29.81,10,9,1,14,4,,0.40,7,Rain-Thunderstorm,138
2013-9-10,80,71,62,63,58,52,94,70,39,30.02,29.90,29.84,10,10,10,14,7,21,0.00,4,Rain,272
2013-9-11,80,71,62,57,53,46,82,55,30,30.00,29.95,29.90,10,10,10,10,7,,0.00,2,,279
2013-9-12,84,74,64,64,58,52,94,64,37,30.06,29.90,29.80,10,10,7,13,3,17,0.18,4,Rain-Thunderstorm,114
2013-9-13,84,72,60,64,60,50,100,74,30,30.01,29.84,29.71,10,8,0,15,4,,0.00,2,Fog,114
2013-9-14,87,76,64,62,57,51,81,55,29,29.95,29.77,29.70,10,10,10,14,6,,0.00,2,Thunderstorm,145
2013-9-15,88,77,66,64,57,51,78,56,29,30.05,29.85,29.75,10,10,4,13,6,17,0.26,3,Rain-Thunderstorm,116
2013-9-16,87,76,66,63,58,52,73,53,31,29.94,29.87,29.81,10,10,10,12,4,,0.00,2,,123
2013-9-17,89,78,66,59,55,43,73,48,20,29.90,29.83,29.74,10,10,10,12,6,,0.00,2,,145
2013-9-18,89,78,66,57,48,39,73,39,19,29.83,29.77,29.70,10,10,10,13,5,,0.00,2,,252
2013-9-19,89,78,66,48,45,39,52,34,20,29.84,29.78,29.73,10,10,10,13,8,,0.00,2,,254
2013-9-20,87,76,64,61,55,41,83,57,31,30.07,29.90,29.80,10,10,10,21,6,28,0.38,3,Rain-Thunderstorm,156
2013-9-21,82,71,60,59,54,49,87,54,32,29.94,29.85,29.75,10,10,10,15,8,22,0.00,1,,143
2013-9-22,84,73,62,58,54,45,73,52,33,29.77,29.72,29.66,10,10,10,22,7,33,0.00,2,,253
2013-9-23,82,70,57,45,40,34,63,36,20,29.94,29.87,29.79,10,10,10,10,6,,0.00,0,,241
2013-9-24,87,73,59,43,35,25,52,28,16,30.13,29.93,29.86,10,10,10,12,5,,0.00,0,,255
2013-9-25,86,73,60,36,31,25,39,23,14,29.87,29.79,29.73,10,10,10,20,6,28,0.00,2,,220
2013-9-26,84,73,62,54,37,25,56,27,18,29.79,29.74,29.70,10,10,10,20,9,31,0.00,3,,210
2013-9-27,71,64,57,54,44,32,82,48,31,29.98,29.84,29.71,10,10,10,20,10,24,0.00,5,,257
2013-9-28,78,66,55,43,37,28,45,35,24,30.05,30.01,29.95,10,10,10,9,5,,0.00,0,,183
2013-9-29,84,70,57,43,38,33,59,33,16,30.09,30.02,29.96,10,10,10,12,4,17,0.00,0,,258
2013-9-30,84,70,57,36,31,25,41,24,13,30.00,29.94,29.86,10,10,10,12,7,,0.00,0,,256